West Bloomfield, New York
Current Conditions -  °F | °C
As of 7:54 PM on Friday 28 Nov 2014 (Local Time) from KROC Reporting Station
Overcast Overcast  
Wind Chill: 18°   Ceiling: 3400
Heat Index: 24°   Visibility: 10mi
Dew Point: 16°   Wind: 5mph
Humidity: 71%   Direction: 230°SW
Pressure: 30.22"   Gusts: NA
Location:  42.91°N, 77.54°W
Report Text: KROC 290054Z 23004KT 10SM OVC034 M04/M09 A3022 RMK AO2 SLP246 T10441089
Loading
Personal Weather Stations






























Interactive Weather Map New forecast layout! Learn more

10-Day Weather Forecast

Advertisements
Track Severe Weather on mobile